createdAt,value
2023-05-05T00:01:33.224Z,14.50
2023-05-05T00:04:00.373Z,14.40
2023-05-05T00:06:28.558Z,14.40
2023-05-05T00:08:56.364Z,14.40
2023-05-05T00:11:23.353Z,14.40
2023-05-05T00:13:50.779Z,14.40
2023-05-05T00:16:17.691Z,14.40
2023-05-05T00:18:44.892Z,14.40
2023-05-05T00:21:12.024Z,14.40
2023-05-05T00:23:39.152Z,14.30
2023-05-05T00:26:06.614Z,14.30
2023-05-05T00:28:33.575Z,14.30
2023-05-05T00:31:00.732Z,14.20
2023-05-05T00:33:27.867Z,14.20
2023-05-05T00:35:54.795Z,14.20
2023-05-05T00:38:22.224Z,14.20
2023-05-05T00:40:49.432Z,14.10
2023-05-05T00:43:16.538Z,14.10
2023-05-05T00:45:47.611Z,14.10
2023-05-05T00:48:14.876Z,14.00
2023-05-05T00:50:43.252Z,14.00
2023-05-05T00:53:10.201Z,14.00
2023-05-05T00:55:39.304Z,14.00
2023-05-05T00:58:06.352Z,14.00
2023-05-05T01:00:33.376Z,14.00
2023-05-05T01:03:00.730Z,13.90
2023-05-05T01:05:33.038Z,13.90
2023-05-05T01:08:15.276Z,13.80
2023-05-05T01:10:47.000Z,13.80
2023-05-05T01:13:32.485Z,13.70
2023-05-05T01:15:59.600Z,13.70
2023-05-05T01:18:27.749Z,13.60
2023-05-05T01:20:57.651Z,13.60
2023-05-05T01:23:27.744Z,14.00
2023-05-05T01:26:08.012Z,13.50
2023-05-05T01:28:53.470Z,13.30
2023-05-05T01:31:39.493Z,13.20
2023-05-05T01:34:07.508Z,13.30
2023-05-05T01:36:39.640Z,13.30
2023-05-05T01:39:08.426Z,13.30
2023-05-05T01:41:41.180Z,13.20
2023-05-05T01:44:09.610Z,13.10
2023-05-05T01:46:37.006Z,13.10
2023-05-05T01:49:05.009Z,13.10
2023-05-05T01:51:32.330Z,13.00
2023-05-05T01:54:00.914Z,13.00
2023-05-05T01:56:30.242Z,13.00
2023-05-05T01:58:57.584Z,13.00
2023-05-05T02:01:25.994Z,12.90
2023-05-05T02:03:54.345Z,12.90
2023-05-05T02:06:22.987Z,12.90
2023-05-05T02:08:51.229Z,12.80
2023-05-05T02:11:18.841Z,12.80
2023-05-05T02:13:46.203Z,12.80
2023-05-05T02:16:17.195Z,12.80
2023-05-05T02:18:46.114Z,12.70
2023-05-05T02:21:14.838Z,12.70
2023-05-05T02:23:41.870Z,12.70
2023-05-05T02:26:09.964Z,12.60
2023-05-05T02:28:46.510Z,12.60
2023-05-05T02:31:13.992Z,12.60
2023-05-05T02:33:42.098Z,12.50
2023-05-05T02:36:15.647Z,12.50
2023-05-05T02:38:56.000Z,12.50
2023-05-05T02:41:25.736Z,12.40
2023-05-05T02:43:54.956Z,12.40
2023-05-05T02:46:22.296Z,12.40
2023-05-05T02:48:49.339Z,12.30
2023-05-05T02:51:16.362Z,12.30
2023-05-05T02:53:43.337Z,12.30
2023-05-05T02:56:23.590Z,12.30
2023-05-05T02:58:55.934Z,12.30
2023-05-05T03:01:29.225Z,12.20
2023-05-05T03:04:07.452Z,12.30
2023-05-05T03:06:42.690Z,12.20
2023-05-05T03:09:15.083Z,12.20
2023-05-05T03:11:51.032Z,12.20
2023-05-05T03:14:19.885Z,12.10
2023-05-05T03:16:49.444Z,12.20
2023-05-05T03:19:18.540Z,12.20
2023-05-05T03:21:47.989Z,12.10
2023-05-05T03:24:18.928Z,12.00
2023-05-05T03:26:54.111Z,12.10
2023-05-05T03:29:25.547Z,12.00
2023-05-05T03:31:53.427Z,12.00
2023-05-05T03:34:20.653Z,12.00
2023-05-05T03:36:48.700Z,12.00
2023-05-05T03:39:17.136Z,12.00
2023-05-05T03:41:44.120Z,11.90
2023-05-05T03:44:12.391Z,12.00
2023-05-05T03:46:39.461Z,12.00
2023-05-05T03:49:09.937Z,12.00
2023-05-05T03:51:38.847Z,11.90
2023-05-05T03:54:05.923Z,11.90
2023-05-05T03:56:32.941Z,12.00
2023-05-05T03:59:00.237Z,12.00
2023-05-05T04:01:29.933Z,12.00
2023-05-05T04:03:57.558Z,12.00
2023-05-05T04:06:24.748Z,12.00
2023-05-05T04:08:51.991Z,12.10
2023-05-05T04:11:19.113Z,12.10
2023-05-05T04:13:46.388Z,12.20
2023-05-05T04:16:13.901Z,12.20
2023-05-05T04:18:41.396Z,12.30
2023-05-05T04:21:08.315Z,12.30
2023-05-05T04:23:35.415Z,12.30
2023-05-05T04:26:02.435Z,12.40
2023-05-05T04:28:29.371Z,12.50
2023-05-05T04:30:56.377Z,12.50
2023-05-05T04:33:23.684Z,12.60
2023-05-05T04:35:50.621Z,12.00
2023-05-05T04:38:19.506Z,12.60
2023-05-05T04:40:47.175Z,12.60
2023-05-05T04:43:14.191Z,12.70
2023-05-05T04:45:41.328Z,12.70
2023-05-05T04:48:08.521Z,12.80
2023-05-05T04:50:37.117Z,12.80
2023-05-05T04:53:03.989Z,12.90
2023-05-05T04:55:31.087Z,13.00
2023-05-05T04:57:57.983Z,12.30
2023-05-05T05:00:24.953Z,13.00
2023-05-05T05:02:53.328Z,13.10
2023-05-05T05:05:21.666Z,13.10
2023-05-05T05:07:48.600Z,13.20
2023-05-05T05:10:15.588Z,13.20
2023-05-05T05:12:42.818Z,13.30
2023-05-05T05:15:11.160Z,13.30
2023-05-05T05:17:38.218Z,13.30
2023-05-05T05:20:06.119Z,13.30
2023-05-05T05:22:35.031Z,13.40
2023-05-05T05:25:02.869Z,13.40
2023-05-05T05:27:29.868Z,13.50
2023-05-05T05:29:56.784Z,13.60
2023-05-05T05:32:24.787Z,13.70
2023-05-05T05:34:51.975Z,13.80
2023-05-05T05:37:19.080Z,14.00
2023-05-05T05:39:51.363Z,14.10
2023-05-05T05:42:18.898Z,14.20
2023-05-05T05:44:45.915Z,14.40
2023-05-05T05:47:13.174Z,14.60
2023-05-05T05:49:40.349Z,14.60
2023-05-05T05:52:07.404Z,14.70
2023-05-05T05:54:35.700Z,14.90
2023-05-05T05:57:04.075Z,15.00
2023-05-05T05:59:31.089Z,15.10
2023-05-05T06:01:58.708Z,15.30
2023-05-05T06:04:28.920Z,15.50
2023-05-05T06:06:57.157Z,15.50
2023-05-05T06:09:25.254Z,15.60
2023-05-05T06:11:54.174Z,15.80
2023-05-05T06:14:21.522Z,15.90
2023-05-05T06:16:48.874Z,16.00
2023-05-05T06:19:19.703Z,15.80
2023-05-05T06:21:46.737Z,16.00
2023-05-05T06:24:13.665Z,16.10
2023-05-05T06:26:40.983Z,16.20
2023-05-05T06:29:08.773Z,16.30
2023-05-05T06:31:36.551Z,16.30
2023-05-05T06:34:03.499Z,16.50
2023-05-05T06:36:30.417Z,16.60
2023-05-05T06:38:57.339Z,16.70
2023-05-05T06:41:24.299Z,16.80
2023-05-05T06:43:51.190Z,16.90
2023-05-05T06:46:18.122Z,17.00
2023-05-05T06:48:45.595Z,17.20
2023-05-05T06:51:12.636Z,17.30
2023-05-05T06:53:39.611Z,17.30
2023-05-05T06:56:06.641Z,17.30
2023-05-05T06:58:33.521Z,17.40
2023-05-05T07:01:00.456Z,17.40
2023-05-05T07:03:28.039Z,17.60
2023-05-05T07:05:55.183Z,17.70
2023-05-05T07:08:22.040Z,17.80
2023-05-05T07:10:49.910Z,18.00
2023-05-05T07:13:17.502Z,18.10
2023-05-05T07:15:46.538Z,18.20
2023-05-05T07:18:14.093Z,18.30
2023-05-05T07:20:41.085Z,18.50
2023-05-05T07:23:08.262Z,18.60
2023-05-05T07:25:35.314Z,18.60
2023-05-05T07:28:04.312Z,18.80
2023-05-05T07:30:31.284Z,18.70
2023-05-05T07:32:58.386Z,18.90
2023-05-05T07:35:25.453Z,18.90
2023-05-05T07:37:52.468Z,19.10
2023-05-05T07:40:19.671Z,19.20
2023-05-05T07:42:47.589Z,19.20
2023-05-05T07:45:14.709Z,19.10
2023-05-05T07:47:41.737Z,19.10
2023-05-05T07:50:08.937Z,19.10
2023-05-05T07:52:47.902Z,19.10
2023-05-05T07:55:18.628Z,19.30
2023-05-05T07:57:45.608Z,19.40
2023-05-05T08:00:13.556Z,19.30
2023-05-05T08:02:41.344Z,19.60
2023-05-05T08:05:09.222Z,19.60
2023-05-05T08:07:41.543Z,19.70
2023-05-05T08:10:10.368Z,19.70
2023-05-05T08:12:39.510Z,19.50
2023-05-05T08:15:07.069Z,19.60
2023-05-05T08:17:47.775Z,19.60
2023-05-05T08:20:15.228Z,19.70
2023-05-05T08:22:43.084Z,19.90
2023-05-05T08:25:13.302Z,19.80
2023-05-05T08:27:41.152Z,20.00
2023-05-05T08:30:09.293Z,19.60
2023-05-05T08:32:36.287Z,19.80
2023-05-05T08:35:03.562Z,19.90
2023-05-05T08:37:30.814Z,19.80
2023-05-05T08:39:58.119Z,19.70
2023-05-05T08:42:36.302Z,19.70
2023-05-05T08:45:04.975Z,20.10
2023-05-05T08:47:32.375Z,20.20
2023-05-05T08:49:59.631Z,20.30
2023-05-05T08:52:28.923Z,20.50
2023-05-05T08:54:59.566Z,20.30
2023-05-05T08:57:35.834Z,20.10
2023-05-05T09:00:04.114Z,20.40
2023-05-05T09:02:31.947Z,20.70
2023-05-05T09:05:00.724Z,20.80
2023-05-05T09:07:27.658Z,20.80
2023-05-05T09:09:54.714Z,20.80
2023-05-05T09:12:22.101Z,20.80
2023-05-05T09:17:45.011Z,20.50
2023-05-05T09:20:14.447Z,20.50
2023-05-05T09:22:45.375Z,20.70
2023-05-05T09:25:13.534Z,20.80
2023-05-05T09:27:47.929Z,20.80
2023-05-05T09:30:23.518Z,21.00
2023-05-05T09:32:51.393Z,21.10
2023-05-05T09:35:19.496Z,20.80
2023-05-05T09:37:46.745Z,21.00
2023-05-05T09:40:15.177Z,21.00
2023-05-05T09:42:42.491Z,20.70
2023-05-05T09:45:19.381Z,21.10
2023-05-05T09:47:47.292Z,21.40
2023-05-05T09:50:29.695Z,21.60
2023-05-05T09:53:01.222Z,21.50
2023-05-05T09:55:28.613Z,21.50
2023-05-05T09:57:55.823Z,21.20
2023-05-05T10:00:37.293Z,21.10
2023-05-05T10:03:04.477Z,21.10
2023-05-05T10:05:31.649Z,21.00
2023-05-05T10:08:12.648Z,21.10
2023-05-05T10:10:54.909Z,21.10
2023-05-05T10:13:22.773Z,20.70
2023-05-05T10:15:51.530Z,20.70
2023-05-05T10:18:25.724Z,20.90
2023-05-05T10:20:59.657Z,21.00
2023-05-05T10:23:28.705Z,21.30
2023-05-05T10:26:03.818Z,21.40
2023-05-05T10:28:55.034Z,21.20
2023-05-05T10:31:26.312Z,21.20
2023-05-05T10:33:57.917Z,21.10
2023-05-05T10:36:25.688Z,21.60
2023-05-05T10:38:59.597Z,21.70
2023-05-05T10:41:30.960Z,21.70
2023-05-05T10:43:59.569Z,21.60
2023-05-05T10:46:28.183Z,21.60
2023-05-05T10:48:56.798Z,21.80
2023-05-05T10:51:41.008Z,21.90
2023-05-05T10:54:10.661Z,22.00
2023-05-05T10:56:45.143Z,21.90
2023-05-05T10:59:31.479Z,21.80
2023-05-05T11:01:58.454Z,21.80
2023-05-05T11:04:26.054Z,21.60
2023-05-05T11:07:09.268Z,21.90
2023-05-05T11:09:54.093Z,22.00
2023-05-05T11:12:28.124Z,22.00
2023-05-05T11:15:13.974Z,22.20
2023-05-05T11:17:45.857Z,22.40
2023-05-05T11:20:13.024Z,22.40
2023-05-05T11:22:58.822Z,22.30
2023-05-05T11:25:35.103Z,22.40
2023-05-05T11:28:06.699Z,22.30
2023-05-05T11:30:33.868Z,21.90
2023-05-05T11:33:39.671Z,22.10
2023-05-05T11:36:07.647Z,22.10
2023-05-05T11:38:37.963Z,21.90
2023-05-05T11:41:25.180Z,21.70
2023-05-05T11:44:08.144Z,21.40
2023-05-05T11:46:35.352Z,21.30
2023-05-05T11:49:02.316Z,21.90
2023-05-05T11:51:29.265Z,22.20
2023-05-05T11:53:57.871Z,22.00
2023-05-05T11:56:25.945Z,21.30
2023-05-05T11:59:11.311Z,21.30
2023-05-05T12:01:41.586Z,21.70
2023-05-05T12:04:12.079Z,21.80
2023-05-05T12:06:39.521Z,22.00
2023-05-05T12:09:07.000Z,22.30
2023-05-05T12:11:33.904Z,22.20
2023-05-05T12:14:10.793Z,22.20
2023-05-05T12:16:38.537Z,22.30
2023-05-05T12:19:06.080Z,22.30
2023-05-05T12:21:33.176Z,22.40
2023-05-05T12:24:00.452Z,22.40
2023-05-05T12:26:31.587Z,22.40
2023-05-05T12:28:59.317Z,22.40
2023-05-05T12:31:52.721Z,22.50
2023-05-05T12:34:21.426Z,22.70
2023-05-05T12:36:48.752Z,22.90
2023-05-05T12:39:15.656Z,23.10
2023-05-05T12:41:42.697Z,23.10
2023-05-05T12:44:09.752Z,22.70
2023-05-05T12:46:49.074Z,22.70
2023-05-05T12:49:16.838Z,22.60
2023-05-05T12:51:57.059Z,22.60
2023-05-05T12:54:25.159Z,22.80
2023-05-05T12:56:52.076Z,22.80
2023-05-05T12:59:22.118Z,22.70
2023-05-05T13:01:57.264Z,22.80
2023-05-05T13:04:24.846Z,22.80
2023-05-05T13:07:12.223Z,22.80
2023-05-05T13:09:39.259Z,22.80
2023-05-05T13:12:08.667Z,22.80
2023-05-05T13:14:36.528Z,22.70
2023-05-05T13:17:03.501Z,22.60
2023-05-05T13:19:30.703Z,22.70
2023-05-05T13:21:58.348Z,22.90
2023-05-05T13:24:37.863Z,23.20
2023-05-05T13:27:09.715Z,23.30
2023-05-05T13:29:36.778Z,23.30
2023-05-05T13:32:03.791Z,23.30
2023-05-05T13:34:30.940Z,23.30
2023-05-05T13:36:57.964Z,23.10
2023-05-05T13:39:27.232Z,22.90
2023-05-05T13:44:35.738Z,22.60
2023-05-05T13:47:03.205Z,22.60
2023-05-05T13:49:30.170Z,22.60
2023-05-05T13:51:57.402Z,22.60
2023-05-05T13:54:24.380Z,22.80
2023-05-05T13:56:51.505Z,22.90
2023-05-05T13:59:18.540Z,23.00
2023-05-05T14:01:45.429Z,23.10
2023-05-05T14:04:12.438Z,23.30
2023-05-05T14:06:39.394Z,23.20
2023-05-05T14:09:08.099Z,23.30
2023-05-05T14:11:36.646Z,23.00
2023-05-05T14:14:03.536Z,22.90
2023-05-05T14:16:30.541Z,22.50
2023-05-05T14:18:57.524Z,22.50
2023-05-05T14:21:24.531Z,22.60
2023-05-05T14:23:51.426Z,22.50
2023-05-05T14:26:18.601Z,22.40
2023-05-05T14:28:47.242Z,22.50
2023-05-05T14:31:15.312Z,22.60
2023-05-05T14:33:42.174Z,22.60
2023-05-05T14:36:09.139Z,22.70
2023-05-05T14:38:36.097Z,22.60
2023-05-05T14:41:03.018Z,22.60
2023-05-05T14:43:30.008Z,22.60
2023-05-05T14:46:16.900Z,22.50
2023-05-05T14:48:44.128Z,22.20
2023-05-05T14:51:11.644Z,22.30
2023-05-05T14:53:38.993Z,22.30
2023-05-05T14:56:06.235Z,22.40
2023-05-05T14:58:33.297Z,22.30
2023-05-05T15:01:00.644Z,22.30
2023-05-05T15:03:27.709Z,22.30
2023-05-05T15:05:54.668Z,22.30
2023-05-05T15:08:22.113Z,22.30
2023-05-05T15:10:49.030Z,22.30
2023-05-05T15:13:16.082Z,22.20
2023-05-05T15:15:43.194Z,22.10
2023-05-05T15:18:10.489Z,22.10
2023-05-05T15:20:37.455Z,21.90
2023-05-05T15:23:04.430Z,21.90
2023-05-05T15:25:31.425Z,22.00
2023-05-05T15:27:58.981Z,22.00
2023-05-05T15:30:26.883Z,22.00
2023-05-05T15:32:54.075Z,22.00
2023-05-05T15:35:21.068Z,22.00
2023-05-05T15:37:47.921Z,21.90
2023-05-05T15:40:15.062Z,21.80
2023-05-05T15:42:42.007Z,21.80
2023-05-05T15:45:12.120Z,21.90
2023-05-05T15:47:39.129Z,21.80
2023-05-05T15:50:06.309Z,21.80
2023-05-05T15:52:33.343Z,21.70
2023-05-05T15:55:00.524Z,21.70
2023-05-05T15:57:27.765Z,21.80
2023-05-05T15:59:54.753Z,21.70
2023-05-05T16:02:22.294Z,21.70
2023-05-05T16:04:49.275Z,21.70
2023-05-05T16:07:17.282Z,21.70
2023-05-05T16:09:44.574Z,21.70
2023-05-05T16:12:11.640Z,21.70
2023-05-05T16:14:38.729Z,21.60
2023-05-05T16:17:05.685Z,21.50
2023-05-05T16:19:32.756Z,21.50
2023-05-05T16:21:59.616Z,21.50
2023-05-05T16:24:26.658Z,21.40
2023-05-05T16:26:53.976Z,21.50
2023-05-05T16:29:21.028Z,21.50
2023-05-05T16:31:48.087Z,21.50
2023-05-05T16:34:16.494Z,21.50
2023-05-05T16:36:44.456Z,21.50
2023-05-05T16:39:11.999Z,21.50
2023-05-05T16:41:39.506Z,21.50
2023-05-05T16:44:06.651Z,21.50
2023-05-05T16:46:37.293Z,21.40
2023-05-05T16:49:04.864Z,21.40
2023-05-05T16:51:31.880Z,21.40
2023-05-05T16:53:58.734Z,21.30
2023-05-05T16:56:25.968Z,21.30
2023-05-05T16:58:52.902Z,21.20
2023-05-05T17:01:19.941Z,21.20
2023-05-05T17:03:46.875Z,21.10
2023-05-05T17:06:13.776Z,21.10
2023-05-05T17:08:40.707Z,21.10
2023-05-05T17:11:08.923Z,21.00
2023-05-05T17:13:37.836Z,20.90
2023-05-05T17:16:05.012Z,20.90
2023-05-05T17:18:31.946Z,20.80
2023-05-05T17:20:58.891Z,20.70
2023-05-05T17:23:25.850Z,20.70
2023-05-05T17:25:52.815Z,20.50
2023-05-05T17:28:19.797Z,20.50
2023-05-05T17:30:47.034Z,20.30
2023-05-05T17:33:16.890Z,20.30
2023-05-05T17:35:43.938Z,20.20
2023-05-05T17:38:11.456Z,20.10
2023-05-05T17:40:38.443Z,20.00
2023-05-05T17:43:05.362Z,19.90
2023-05-05T17:45:32.358Z,19.80
2023-05-05T17:47:59.391Z,19.70
2023-05-05T17:50:26.533Z,19.70
2023-05-05T17:52:53.519Z,19.60
2023-05-05T17:55:20.834Z,19.60
2023-05-05T17:57:47.759Z,19.50
2023-05-05T18:00:14.862Z,19.40
2023-05-05T18:02:42.082Z,19.40
2023-05-05T18:05:09.522Z,19.30
2023-05-05T18:07:38.627Z,19.20
2023-05-05T18:10:10.608Z,19.20
2023-05-05T18:12:37.553Z,19.20
2023-05-05T18:15:04.959Z,19.10
2023-05-05T18:17:31.992Z,19.00
2023-05-05T18:19:58.858Z,18.90
2023-05-05T18:22:25.720Z,18.90
2023-05-05T18:24:58.980Z,18.80
2023-05-05T18:27:26.951Z,18.80
2023-05-05T18:29:53.895Z,18.70
2023-05-05T18:32:21.440Z,18.70
2023-05-05T18:34:48.404Z,18.60
2023-05-05T18:37:15.495Z,18.50
2023-05-05T18:39:44.030Z,18.40
2023-05-05T18:42:12.895Z,18.40
2023-05-05T18:44:40.014Z,18.30
2023-05-05T18:47:07.627Z,18.30
2023-05-05T18:49:34.799Z,18.20
2023-05-05T18:52:01.746Z,18.20
2023-05-05T18:54:28.994Z,18.10
2023-05-05T18:56:56.519Z,18.10
2023-05-05T18:59:23.858Z,18.00
2023-05-05T19:01:51.293Z,18.00
2023-05-05T19:04:30.064Z,18.00
2023-05-05T19:06:58.640Z,17.90
2023-05-05T19:09:25.681Z,17.90
2023-05-05T19:11:52.709Z,17.80
2023-05-05T19:14:19.584Z,17.80
2023-05-05T19:16:46.606Z,17.70
2023-05-05T19:19:13.535Z,17.70
2023-05-05T19:21:40.484Z,17.60
2023-05-05T19:24:10.817Z,17.60
2023-05-05T19:26:37.913Z,17.50
2023-05-05T19:29:04.812Z,17.50
2023-05-05T19:31:31.989Z,17.50
2023-05-05T19:34:03.320Z,17.50
2023-05-05T19:36:31.697Z,17.40
2023-05-05T19:39:02.310Z,17.30
2023-05-05T19:41:30.575Z,17.30
2023-05-05T19:43:57.856Z,17.20
2023-05-05T19:46:27.732Z,17.20
2023-05-05T19:48:54.745Z,17.20
2023-05-05T19:51:21.914Z,17.10
2023-05-05T19:53:49.116Z,17.10
2023-05-05T19:56:17.044Z,17.10
2023-05-05T19:58:57.737Z,17.10
2023-05-05T20:01:25.380Z,17.00
2023-05-05T20:03:54.464Z,17.00
2023-05-05T20:06:21.740Z,16.90
2023-05-05T20:08:48.659Z,16.90
2023-05-05T20:11:15.893Z,16.90
2023-05-05T20:13:43.203Z,16.80
2023-05-05T20:16:10.313Z,16.80
2023-05-05T20:18:37.236Z,16.70
2023-05-05T20:21:04.482Z,16.70
2023-05-05T20:23:31.869Z,16.70
2023-05-05T20:25:58.932Z,16.60
2023-05-05T20:28:25.843Z,16.60
2023-05-05T20:30:52.756Z,16.50
2023-05-05T20:33:20.173Z,16.50
2023-05-05T20:35:47.225Z,16.50
2023-05-05T20:38:14.285Z,16.50
2023-05-05T20:40:42.082Z,16.40
2023-05-05T20:43:09.017Z,16.30
2023-05-05T20:45:37.386Z,16.30
2023-05-05T20:48:05.255Z,16.20
2023-05-05T20:50:32.587Z,16.20
2023-05-05T20:52:59.694Z,16.20
2023-05-05T20:55:26.646Z,16.10
2023-05-05T20:57:53.669Z,16.10
2023-05-05T21:00:20.520Z,16.10
2023-05-05T21:02:48.068Z,16.00
2023-05-05T21:05:15.133Z,16.10
2023-05-05T21:07:42.025Z,16.00
2023-05-05T21:10:09.343Z,16.00
2023-05-05T21:12:36.849Z,16.00
2023-05-05T21:15:03.872Z,16.00
2023-05-05T21:17:31.027Z,15.90
2023-05-05T21:19:58.059Z,15.80
2023-05-05T21:22:25.105Z,15.80
2023-05-05T21:24:52.320Z,15.70
2023-05-05T21:27:19.517Z,15.70
2023-05-05T21:29:46.550Z,15.70
2023-05-05T21:32:13.420Z,15.70
2023-05-05T21:34:40.360Z,15.60
2023-05-05T21:37:08.042Z,15.60
2023-05-05T21:39:35.569Z,15.50
2023-05-05T21:42:02.575Z,15.50
2023-05-05T21:44:29.647Z,15.50
2023-05-05T21:46:56.627Z,15.50
2023-05-05T21:49:23.753Z,15.40
2023-05-05T21:51:50.775Z,15.30
2023-05-05T21:54:17.755Z,15.40
2023-05-05T21:56:44.727Z,15.40
2023-05-05T21:59:11.650Z,15.30
2023-05-05T22:01:38.650Z,15.30
2023-05-05T22:04:05.742Z,15.30
2023-05-05T22:06:32.708Z,15.20
2023-05-05T22:08:59.699Z,15.20
2023-05-05T22:11:27.479Z,15.20
2023-05-05T22:13:54.358Z,15.20
2023-05-05T22:16:21.541Z,15.20
2023-05-05T22:18:49.449Z,15.20
2023-05-05T22:21:16.460Z,15.20
2023-05-05T22:23:43.404Z,15.10
2023-05-05T22:26:10.444Z,15.10
2023-05-05T22:28:38.248Z,15.00
2023-05-05T22:31:05.138Z,15.00
2023-05-05T22:33:32.097Z,15.00
2023-05-05T22:35:59.007Z,14.90
2023-05-05T22:38:25.986Z,14.90
2023-05-05T22:40:52.880Z,14.90
2023-05-05T22:43:19.772Z,14.90
2023-05-05T22:45:46.747Z,14.80
2023-05-05T22:48:13.876Z,14.80
2023-05-05T22:50:41.513Z,14.80
2023-05-05T22:53:08.627Z,14.80
2023-05-05T22:55:35.709Z,14.70
2023-05-05T22:58:02.597Z,14.70
2023-05-05T23:00:29.747Z,14.70
2023-05-05T23:02:56.734Z,14.60
2023-05-05T23:05:23.784Z,14.60
2023-05-05T23:07:50.830Z,14.60
2023-05-05T23:10:17.779Z,14.60
2023-05-05T23:12:44.704Z,14.60
2023-05-05T23:15:12.035Z,14.50
2023-05-05T23:17:39.231Z,14.50
2023-05-05T23:20:06.590Z,14.50
2023-05-05T23:22:33.648Z,14.50
2023-05-05T23:25:00.605Z,14.50
2023-05-05T23:27:27.576Z,14.40
2023-05-05T23:29:54.506Z,14.40
2023-05-05T23:32:21.465Z,14.40
2023-05-05T23:34:48.361Z,14.30
2023-05-05T23:37:15.579Z,14.30
2023-05-05T23:39:42.549Z,14.30
2023-05-05T23:42:09.477Z,14.30
2023-05-05T23:44:36.632Z,14.30
2023-05-05T23:47:04.214Z,14.30
2023-05-05T23:49:31.187Z,14.20
2023-05-05T23:51:58.651Z,14.10
2023-05-05T23:54:26.238Z,14.10
2023-05-05T23:56:53.290Z,14.10
2023-05-05T23:59:20.277Z,14.10
